Time;durP1;ratioP1;P1;durP2;ratioP2;P2;SDS_P1;SDS_P2;PMS_P1;PMS_P2;Temp;Humidity;BMP_temperature;BMP_pressure;BME280_temperature;BME280_humidity;BME280_pressure;Samples;Min_cycle;Max_cycle;Signal;HPM_P1;HPM_P2
2023/01/29 00:00:42;;;;;;;41.95;14.77;;;;;;;;;;5092867;28;20024;-68
2023/01/29 00:03:08;;;;;;;29.85;9.88;;;;;;;;;;5093122;28;20032;-67
2023/01/29 00:05:35;;;;;;;48.72;13.40;;;;;;;;;;5091618;28;20507;-67
2023/01/29 00:08:01;;;;;;;17.45;7.85;;;;;;;;;;5092659;28;20028;-67
2023/01/29 00:10:28;;;;;;;12.57;6.43;;;;;;;;;;5092601;28;20027;-67
2023/01/29 00:12:54;;;;;;;15.65;7.60;;;;;;;;;;5093144;28;20043;-67
2023/01/29 00:15:20;;;;;;;16.33;7.70;;;;;;;;;;5092620;28;20028;-67
2023/01/29 00:17:47;;;;;;;12.30;6.70;;;;;;;;;;5093442;28;20088;-68
2023/01/29 00:20:14;;;;;;;12.63;6.50;;;;;;;;;;5092789;28;20027;-67
2023/01/29 00:22:40;;;;;;;11.30;6.50;;;;;;;;;;5092533;28;20046;-67
2023/01/29 00:25:07;;;;;;;9.88;5.65;;;;;;;;;;5092518;28;20024;-67
2023/01/29 00:27:33;;;;;;;8.48;5.63;;;;;;;;;;5092476;28;20020;-67
2023/01/29 00:30:10;;;;;;;9.48;5.60;;;;;;;;;;5092944;28;20028;-67
2023/01/29 00:32:37;;;;;;;9.30;5.82;;;;;;;;;;5092795;28;20034;-67
2023/01/29 00:35:03;;;;;;;9.35;5.95;;;;;;;;;;5092122;28;20024;-67
2023/01/29 00:37:30;;;;;;;11.10;6.13;;;;;;;;;;5092075;28;20034;-67
2023/01/29 00:39:57;;;;;;;9.48;5.43;;;;;;;;;;5092625;28;20468;-67
2023/01/29 00:45:09;;;;;;;8.02;4.95;;;;;;;;;;5092180;28;20032;-67
2023/01/29 00:47:36;;;;;;;9.95;5.10;;;;;;;;;;5092410;28;20026;-67
2023/01/29 00:50:04;;;;;;;7.68;4.60;;;;;;;;;;5092771;28;20020;-67
2023/01/29 00:52:31;;;;;;;8.88;5.10;;;;;;;;;;5091915;28;20382;-67
2023/01/29 00:54:58;;;;;;;13.25;5.85;;;;;;;;;;5092222;28;20050;-67
2023/01/29 00:57:25;;;;;;;12.32;5.03;;;;;;;;;;5092338;28;20052;-67
2023/01/29 00:59:52;;;;;;;10.63;5.35;;;;;;;;;;5092245;28;20503;-67
2023/01/29 01:05:04;;;;;;;9.75;5.72;;;;;;;;;;5092034;28;20404;-67
2023/01/29 01:07:31;;;;;;;8.82;5.53;;;;;;;;;;5091898;28;20477;-67
2023/01/29 01:12:42;;;;;;;10.45;6.22;;;;;;;;;;5092207;28;20024;-67
2023/01/29 01:15:09;;;;;;;10.95;5.93;;;;;;;;;;5091972;28;20032;-68
2023/01/29 01:17:35;;;;;;;10.77;6.22;;;;;;;;;;5092101;28;20396;-67
2023/01/29 01:20:02;;;;;;;9.57;6.03;;;;;;;;;;5090698;28;20028;-67
2023/01/29 01:22:30;;;;;;;12.00;6.13;;;;;;;;;;5091804;28;20495;-67
2023/01/29 01:24:56;;;;;;;9.48;5.65;;;;;;;;;;5091667;28;20058;-67
2023/01/29 01:27:22;;;;;;;9.35;6.05;;;;;;;;;;5090780;28;20027;-67
2023/01/29 01:29:49;;;;;;;11.45;6.25;;;;;;;;;;5092058;28;20035;-67
2023/01/29 01:32:15;;;;;;;9.65;5.50;;;;;;;;;;5092252;28;20476;-68
2023/01/29 01:34:44;;;;;;;10.52;5.85;;;;;;;;;;5091722;28;20028;-67
2023/01/29 01:37:10;;;;;;;10.35;5.07;;;;;;;;;;5092281;28;20039;-67
2023/01/29 01:39:36;;;;;;;10.43;5.78;;;;;;;;;;5091811;28;20023;-67
2023/01/29 01:42:03;;;;;;;9.52;5.10;;;;;;;;;;5091808;28;20024;-67
2023/01/29 01:44:48;;;;;;;10.40;5.20;;;;;;;;;;5092189;28;20024;-67
2023/01/29 01:47:15;;;;;;;8.30;5.18;;;;;;;;;;5091861;28;20024;-67
2023/01/29 01:49:41;;;;;;;10.73;5.60;;;;;;;;;;5091387;28;20024;-67
2023/01/29 01:52:08;;;;;;;9.55;4.95;;;;;;;;;;5091959;28;20028;-67
2023/01/29 01:54:34;;;;;;;8.88;5.15;;;;;;;;;;5091702;28;20503;-67
2023/01/29 01:57:14;;;;;;;7.78;4.57;;;;;;;;;;5091560;28;20040;-68
2023/01/29 01:59:42;;;;;;;8.03;4.73;;;;;;;;;;5093793;28;20039;-67
2023/01/29 02:10:36;;;;;;;7.18;4.50;;;;;;;;;;5095287;28;20024;-67
2023/01/29 02:13:03;;;;;;;8.80;5.25;;;;;;;;;;5094977;28;20024;-67
2023/01/29 02:15:30;;;;;;;9.95;5.43;;;;;;;;;;5094834;28;20032;-67
2023/01/29 02:17:56;;;;;;;8.05;4.85;;;;;;;;;;5094573;28;20507;-67
2023/01/29 02:20:25;;;;;;;8.88;4.63;;;;;;;;;;5095000;28;20034;-67
2023/01/29 02:22:55;;;;;;;7.57;5.38;;;;;;;;;;5095141;28;20036;-68
2023/01/29 02:25:21;;;;;;;8.27;5.07;;;;;;;;;;5093830;28;20020;-67
2023/01/29 02:27:47;;;;;;;9.55;5.30;;;;;;;;;;5114099;28;20057;-67
2023/01/29 02:30:17;;;;;;;9.48;4.90;;;;;;;;;;5115317;28;20020;-68
2023/01/29 02:32:53;;;;;;;9.25;5.20;;;;;;;;;;5114750;28;20015;-67
2023/01/29 02:35:30;;;;;;;8.15;4.88;;;;;;;;;;5114119;28;20522;-67
2023/01/29 02:37:59;;;;;;;6.55;4.20;;;;;;;;;;5115157;28;20391;-67
2023/01/29 02:40:35;;;;;;;10.73;4.65;;;;;;;;;;5114787;28;20401;-67
2023/01/29 02:43:10;;;;;;;7.45;5.03;;;;;;;;;;5115033;28;20488;-68
2023/01/29 02:45:54;;;;;;;8.05;5.25;;;;;;;;;;5114942;28;20030;-67
2023/01/29 02:48:23;;;;;;;7.90;5.03;;;;;;;;;;5114339;28;20518;-67
2023/01/29 02:50:56;;;;;;;9.38;5.07;;;;;;;;;;5114784;28;20038;-67
2023/01/29 02:53:40;;;;;;;8.15;4.90;;;;;;;;;;5114602;28;20011;-67
2023/01/29 02:56:12;;;;;;;6.05;4.22;;;;;;;;;;5100786;28;20516;-67
2023/01/29 02:58:39;;;;;;;7.43;5.03;;;;;;;;;;5094312;28;20027;-67
2023/01/29 03:01:09;;;;;;;7.75;4.68;;;;;;;;;;5093927;28;20035;-67
2023/01/29 03:03:43;;;;;;;7.38;4.85;;;;;;;;;;5094160;28;20028;-67
2023/01/29 03:06:19;;;;;;;9.65;5.18;;;;;;;;;;5093941;28;20022;-67
2023/01/29 03:08:58;;;;;;;7.63;4.88;;;;;;;;;;5093959;28;20489;-67
2023/01/29 03:11:27;;;;;;;11.18;5.53;;;;;;;;;;5093044;28;20020;-67
2023/01/29 03:13:59;;;;;;;9.68;5.22;;;;;;;;;;5093839;28;20477;-66
2023/01/29 03:16:30;;;;;;;9.75;5.57;;;;;;;;;;5093668;28;20489;-67
2023/01/29 03:19:01;;;;;;;11.10;5.32;;;;;;;;;;5094041;28;20024;-66
2023/01/29 03:32:39;;;;;;;8.60;5.35;;;;;;;;;;5093865;28;20020;-67
2023/01/29 03:35:08;;;;;;;9.80;4.95;;;;;;;;;;5093232;28;20062;-67
2023/01/29 03:37:44;;;;;;;9.00;5.80;;;;;;;;;;5093382;28;20058;-67
2023/01/29 03:40:10;;;;;;;8.73;5.80;;;;;;;;;;5092243;28;20020;-67
2023/01/29 03:42:40;;;;;;;10.43;5.68;;;;;;;;;;5093591;28;20032;-67
2023/01/29 03:45:12;;;;;;;8.93;5.60;;;;;;;;;;5092818;28;20423;-67
2023/01/29 03:47:45;;;;;;;10.63;5.63;;;;;;;;;;5093386;28;20477;-67
2023/01/29 03:50:27;;;;;;;10.38;5.72;;;;;;;;;;5093197;28;20088;-67
2023/01/29 03:53:01;;;;;;;9.32;5.40;;;;;;;;;;5093323;28;20024;-67
2023/01/29 03:55:47;;;;;;;9.73;5.63;;;;;;;;;;5092932;28;20028;-67
2023/01/29 03:58:14;;;;;;;10.23;5.55;;;;;;;;;;5093473;28;20036;-67
2023/01/29 04:00:44;;;;;;;9.00;5.32;;;;;;;;;;5092957;28;20040;-66
2023/01/29 04:03:10;;;;;;;10.93;5.90;;;;;;;;;;5092769;28;20384;-67
2023/01/29 04:05:40;;;;;;;8.95;5.50;;;;;;;;;;5093218;28;20038;-67
2023/01/29 04:08:07;;;;;;;9.98;5.78;;;;;;;;;;5093663;28;20028;-67
2023/01/29 04:10:36;;;;;;;9.30;4.95;;;;;;;;;;5074494;28;20046;-67
2023/01/29 04:13:05;;;;;;;9.52;5.72;;;;;;;;;;5092975;28;20026;-67
2023/01/29 04:15:34;;;;;;;10.70;6.00;;;;;;;;;;5092235;28;20518;-67
2023/01/29 04:18:01;;;;;;;10.25;5.80;;;;;;;;;;5092716;28;20049;-66
2023/01/29 04:20:27;;;;;;;10.55;6.03;;;;;;;;;;5092643;28;20032;-67
2023/01/29 04:22:53;;;;;;;8.65;5.82;;;;;;;;;;5092410;28;20024;-67
2023/01/29 04:25:25;;;;;;;10.82;6.47;;;;;;;;;;5092567;28;20024;-67
2023/01/29 04:27:54;;;;;;;9.73;5.68;;;;;;;;;;5092550;28;20036;-67
2023/01/29 04:30:46;;;;;;;9.23;5.63;;;;;;;;;;5092539;28;20035;-67
2023/01/29 04:33:21;;;;;;;8.45;5.60;;;;;;;;;;5092745;28;20406;-67
2023/01/29 04:36:00;;;;;;;10.43;6.43;;;;;;;;;;5092452;28;20036;-67
2023/01/29 04:38:30;;;;;;;12.27;6.63;;;;;;;;;;5092685;28;20088;-67
2023/01/29 04:41:15;;;;;;;9.90;5.80;;;;;;;;;;5092457;28;20507;-66
2023/01/29 04:43:56;;;;;;;10.07;6.03;;;;;;;;;;5090746;28;20032;-66
2023/01/29 04:46:41;;;;;;;9.93;5.80;;;;;;;;;;5092243;28;20016;-66
2023/01/29 04:49:14;;;;;;;10.15;6.18;;;;;;;;;;5092454;28;20518;-69
2023/01/29 04:51:53;;;;;;;11.32;6.15;;;;;;;;;;5091507;28;20024;-69
2023/01/29 04:54:42;;;;;;;10.00;6.00;;;;;;;;;;5090996;28;20028;-69
2023/01/29 04:57:14;;;;;;;9.93;6.30;;;;;;;;;;5063589;28;20047;-66
2023/01/29 04:59:42;;;;;;;13.02;6.35;;;;;;;;;;5072568;28;20023;-67
2023/01/29 05:02:10;;;;;;;12.02;6.38;;;;;;;;;;5072281;28;20028;-67
2023/01/29 05:04:38;;;;;;;9.63;5.82;;;;;;;;;;5072286;28;20025;-67
2023/01/29 05:07:05;;;;;;;12.85;6.88;;;;;;;;;;5070671;28;20078;-67
2023/01/29 05:09:32;;;;;;;11.43;6.07;;;;;;;;;;5079840;28;20016;-67
2023/01/29 05:12:00;;;;;;;11.52;6.90;;;;;;;;;;5092023;28;20032;-66
2023/01/29 05:14:29;;;;;;;10.68;6.63;;;;;;;;;;5092421;28;20032;-68
2023/01/29 05:16:56;;;;;;;11.20;6.55;;;;;;;;;;5092239;28;20031;-68
2023/01/29 05:19:23;;;;;;;12.00;6.60;;;;;;;;;;5092255;28;20016;-68
2023/01/29 05:21:49;;;;;;;11.70;6.72;;;;;;;;;;5092202;28;20038;-69
2023/01/29 05:24:20;;;;;;;13.30;6.93;;;;;;;;;;5092211;28;20026;-69
2023/01/29 05:29:33;;;;;;;12.55;6.68;;;;;;;;;;5092282;28;20028;-69
2023/01/29 05:31:59;;;;;;;12.25;6.63;;;;;;;;;;5092288;28;20026;-68
2023/01/29 05:34:25;;;;;;;11.65;6.60;;;;;;;;;;5094480;28;20028;-69
2023/01/29 05:36:52;;;;;;;10.90;6.30;;;;;;;;;;5095720;28;20035;-69
2023/01/29 05:39:18;;;;;;;12.63;6.80;;;;;;;;;;5095823;28;20016;-68
2023/01/29 05:41:45;;;;;;;11.25;6.90;;;;;;;;;;5095228;28;20020;-69
2023/01/29 05:44:11;;;;;;;13.00;6.95;;;;;;;;;;5095689;28;20020;-69
2023/01/29 05:46:38;;;;;;;12.13;6.82;;;;;;;;;;5095804;28;20020;-68
2023/01/29 05:49:05;;;;;;;12.13;6.70;;;;;;;;;;5095463;28;20030;-69
2023/01/29 05:51:31;;;;;;;14.77;6.95;;;;;;;;;;5095678;28;20017;-68
2023/01/29 05:53:58;;;;;;;12.25;6.68;;;;;;;;;;5095980;28;20076;-69
2023/01/29 05:56:24;;;;;;;12.02;7.07;;;;;;;;;;5094639;28;20040;-69
2023/01/29 05:58:50;;;;;;;12.40;7.18;;;;;;;;;;5095787;28;20031;-67
2023/01/29 06:01:18;;;;;;;14.07;8.10;;;;;;;;;;5095245;28;20028;-69
2023/01/29 06:03:45;;;;;;;13.93;7.70;;;;;;;;;;5095569;28;20046;-68
2023/01/29 06:06:12;;;;;;;13.98;7.25;;;;;;;;;;5095302;28;20038;-69
2023/01/29 06:08:38;;;;;;;12.50;7.05;;;;;;;;;;5095440;28;20020;-67
2023/01/29 06:11:07;;;;;;;12.95;7.47;;;;;;;;;;5094796;28;20034;-67
2023/01/29 06:13:33;;;;;;;16.60;7.70;;;;;;;;;;5095025;28;20020;-68
2023/01/29 06:16:00;;;;;;;13.93;7.18;;;;;;;;;;5095313;28;20032;-67
2023/01/29 06:18:26;;;;;;;14.48;7.50;;;;;;;;;;5095238;28;20028;-66
2023/01/29 06:20:52;;;;;;;13.27;7.03;;;;;;;;;;5095003;28;20500;-67
2023/01/29 06:23:18;;;;;;;13.68;8.13;;;;;;;;;;5094807;28;20026;-66
2023/01/29 06:25:45;;;;;;;15.20;8.48;;;;;;;;;;5094561;28;20502;-69
2023/01/29 06:28:11;;;;;;;13.43;7.93;;;;;;;;;;5095353;28;20024;-69
2023/01/29 06:30:37;;;;;;;14.25;7.53;;;;;;;;;;5095032;28;20024;-69
2023/01/29 06:33:04;;;;;;;13.30;7.70;;;;;;;;;;5094688;28;20020;-68
2023/01/29 06:35:30;;;;;;;14.05;7.88;;;;;;;;;;5094509;28;20044;-69
2023/01/29 06:37:56;;;;;;;14.10;8.00;;;;;;;;;;5095024;28;20477;-69
2023/01/29 06:40:22;;;;;;;14.82;8.57;;;;;;;;;;5094996;28;20024;-69
2023/01/29 06:42:49;;;;;;;18.67;9.48;;;;;;;;;;5093560;28;20481;-68
2023/01/29 06:45:15;;;;;;;17.00;9.45;;;;;;;;;;5094399;28;20020;-68
2023/01/29 06:47:41;;;;;;;17.88;9.73;;;;;;;;;;5095152;28;20016;-69
2023/01/29 06:50:08;;;;;;;19.52;9.32;;;;;;;;;;5094442;28;20370;-69
2023/01/29 06:52:34;;;;;;;20.05;10.00;;;;;;;;;;5094671;28;20097;-68
2023/01/29 06:55:01;;;;;;;18.92;9.57;;;;;;;;;;5093701;28;20024;-68
2023/01/29 06:57:29;;;;;;;20.90;10.13;;;;;;;;;;5094155;28;20058;-68
2023/01/29 06:59:55;;;;;;;17.80;10.35;;;;;;;;;;5094108;28;20038;-68
2023/01/29 07:02:21;;;;;;;19.17;9.95;;;;;;;;;;5094808;28;20024;-69
2023/01/29 07:04:47;;;;;;;18.20;10.05;;;;;;;;;;5094153;28;20016;-69
2023/01/29 07:07:14;;;;;;;22.65;10.63;;;;;;;;;;5094476;28;20028;-68
2023/01/29 07:09:41;;;;;;;19.83;10.35;;;;;;;;;;5093462;28;20077;-68
2023/01/29 07:12:07;;;;;;;19.35;10.05;;;;;;;;;;5094073;28;20038;-69
2023/01/29 07:14:34;;;;;;;19.77;10.25;;;;;;;;;;5093952;28;20025;-69
2023/01/29 07:17:00;;;;;;;22.67;11.15;;;;;;;;;;5094066;28;20024;-69
2023/01/29 07:19:26;;;;;;;24.77;12.15;;;;;;;;;;5093818;28;20016;-69
2023/01/29 07:21:52;;;;;;;29.35;14.02;;;;;;;;;;5092707;28;20082;-66
2023/01/29 07:24:19;;;;;;;33.88;15.65;;;;;;;;;;5093750;28;20026;-69
2023/01/29 07:26:45;;;;;;;38.60;17.90;;;;;;;;;;5094049;28;20024;-69
2023/01/29 07:29:12;;;;;;;42.55;18.45;;;;;;;;;;5093475;28;20027;-68
2023/01/29 07:31:38;;;;;;;37.38;16.48;;;;;;;;;;5093749;28;20024;-68
2023/01/29 07:34:04;;;;;;;27.55;13.32;;;;;;;;;;5092275;28;20523;-69
2023/01/29 07:36:31;;;;;;;28.73;13.18;;;;;;;;;;5092988;28;20039;-68
2023/01/29 07:38:57;;;;;;;25.73;12.38;;;;;;;;;;5092365;28;20028;-69
2023/01/29 07:41:23;;;;;;;35.30;17.10;;;;;;;;;;5093797;28;20024;-69
2023/01/29 07:43:49;;;;;;;32.22;15.48;;;;;;;;;;5093377;28;20775;-68
2023/01/29 07:46:16;;;;;;;31.45;13.77;;;;;;;;;;5093528;28;20028;-69
2023/01/29 07:48:42;;;;;;;29.65;15.77;;;;;;;;;;5093390;28;20024;-69
2023/01/29 07:51:08;;;;;;;47.53;23.73;;;;;;;;;;5093165;28;20028;-69
2023/01/29 07:53:35;;;;;;;51.72;24.75;;;;;;;;;;5093188;28;20020;-69
2023/01/29 07:56:02;;;;;;;65.38;27.70;;;;;;;;;;5092455;28;20036;-69
2023/01/29 07:58:28;;;;;;;30.98;15.48;;;;;;;;;;5093521;28;20492;-69
2023/01/29 08:00:55;;;;;;;24.52;12.90;;;;;;;;;;5093357;28;20480;-69
2023/01/29 08:03:21;;;;;;;21.90;11.20;;;;;;;;;;5093439;28;20031;-68
2023/01/29 08:05:48;;;;;;;17.10;9.30;;;;;;;;;;5092956;28;20028;-68
2023/01/29 08:08:14;;;;;;;12.88;7.78;;;;;;;;;;5093245;28;20031;-67
2023/01/29 08:10:41;;;;;;;12.68;7.20;;;;;;;;;;5092988;28;20023;-66
2023/01/29 08:13:08;;;;;;;9.65;6.53;;;;;;;;;;5092849;28;20036;-67
2023/01/29 08:15:34;;;;;;;13.32;7.40;;;;;;;;;;5092844;28;20407;-67
2023/01/29 08:18:01;;;;;;;16.15;8.32;;;;;;;;;;5092772;28;20020;-66
2023/01/29 08:20:27;;;;;;;12.88;6.97;;;;;;;;;;5092233;28;20533;-67
2023/01/29 08:23:04;;;;;;;12.02;7.30;;;;;;;;;;5092828;28;20027;-67
2023/01/29 08:25:31;;;;;;;13.00;7.97;;;;;;;;;;5092756;28;20024;-67
2023/01/29 08:27:58;;;;;;;14.32;7.78;;;;;;;;;;5092786;28;20032;-67
2023/01/29 08:30:29;;;;;;;12.80;8.10;;;;;;;;;;5092534;28;20491;-67
2023/01/29 08:32:56;;;;;;;12.00;7.97;;;;;;;;;;5091862;28;20032;-67
2023/01/29 08:35:22;;;;;;;12.23;8.18;;;;;;;;;;5092075;28;20411;-67
2023/01/29 08:37:53;;;;;;;11.20;7.70;;;;;;;;;;5092811;28;20028;-67
2023/01/29 08:40:19;;;;;;;11.30;7.47;;;;;;;;;;5092894;28;20034;-67
2023/01/29 08:42:45;;;;;;;12.30;8.05;;;;;;;;;;5092927;28;20030;-67
2023/01/29 08:45:12;;;;;;;10.63;7.50;;;;;;;;;;5092640;28;20031;-67
2023/01/29 08:47:38;;;;;;;12.52;8.60;;;;;;;;;;5093586;28;20077;-67
2023/01/29 08:50:05;;;;;;;13.95;8.82;;;;;;;;;;5092616;28;20034;-67
2023/01/29 08:52:31;;;;;;;12.10;8.70;;;;;;;;;;5092901;28;20028;-68
2023/01/29 08:54:57;;;;;;;16.60;9.82;;;;;;;;;;5104783;28;20074;-67
2023/01/29 08:57:24;;;;;;;14.25;9.32;;;;;;;;;;5072155;28;20109;-67
2023/01/29 08:59:50;;;;;;;16.08;9.98;;;;;;;;;;5072147;28;20051;-67
2023/01/29 09:02:17;;;;;;;13.45;8.90;;;;;;;;;;5072377;28;20065;-67
2023/01/29 09:04:43;;;;;;;12.15;9.32;;;;;;;;;;5071781;28;20020;-67
2023/01/29 09:07:09;;;;;;;13.82;9.63;;;;;;;;;;5072287;28;20462;-67
2023/01/29 09:09:37;;;;;;;12.48;9.02;;;;;;;;;;5083221;28;20022;-67
2023/01/29 09:12:03;;;;;;;12.65;9.38;;;;;;;;;;5096889;28;20030;-67
2023/01/29 09:14:29;;;;;;;12.85;8.60;;;;;;;;;;5096479;28;20028;-67
2023/01/29 09:16:57;;;;;;;13.65;10.05;;;;;;;;;;5096711;28;20036;-68
2023/01/29 09:19:24;;;;;;;13.25;9.23;;;;;;;;;;5096327;28;20457;-67
2023/01/29 09:21:50;;;;;;;12.65;8.93;;;;;;;;;;5096312;28;20031;-67
2023/01/29 09:24:16;;;;;;;11.95;8.73;;;;;;;;;;5095956;28;20016;-67
2023/01/29 09:26:43;;;;;;;10.20;7.95;;;;;;;;;;5095200;28;20034;-67
2023/01/29 09:29:10;;;;;;;15.15;8.65;;;;;;;;;;5096630;28;20038;-68
2023/01/29 09:31:36;;;;;;;11.05;8.77;;;;;;;;;;5095272;28;20027;-67
2023/01/29 09:34:02;;;;;;;10.73;8.93;;;;;;;;;;5094489;28;20016;-67
2023/01/29 09:36:29;;;;;;;11.23;8.52;;;;;;;;;;5096239;28;20505;-67
2023/01/29 09:38:55;;;;;;;13.63;8.85;;;;;;;;;;5095753;28;20028;-67
2023/01/29 09:41:22;;;;;;;12.32;8.95;;;;;;;;;;5095845;28;20028;-67
2023/01/29 09:43:54;;;;;;;12.32;9.00;;;;;;;;;;5095755;28;20450;-67
2023/01/29 09:46:29;;;;;;;11.02;8.77;;;;;;;;;;5095879;28;20040;-67
2023/01/29 09:49:01;;;;;;;11.23;8.43;;;;;;;;;;5095197;28;20012;-66
2023/01/29 09:51:30;;;;;;;11.07;8.50;;;;;;;;;;5095664;28;20034;-66
2023/01/29 09:54:03;;;;;;;13.93;9.70;;;;;;;;;;5095765;28;20028;-66
2023/01/29 09:56:30;;;;;;;16.17;10.77;;;;;;;;;;5095486;28;20036;-67
2023/01/29 09:58:58;;;;;;;18.65;11.60;;;;;;;;;;5095631;28;20039;-67
2023/01/29 10:01:41;;;;;;;20.55;11.93;;;;;;;;;;5095494;28;20030;-67
2023/01/29 10:04:13;;;;;;;13.75;10.00;;;;;;;;;;5095384;28;20040;-67
2023/01/29 10:06:48;;;;;;;14.55;9.93;;;;;;;;;;5095711;28;20043;-67
2023/01/29 10:09:24;;;;;;;17.65;10.60;;;;;;;;;;5095775;28;20480;-67
2023/01/29 10:12:09;;;;;;;13.48;9.15;;;;;;;;;;5095565;28;20423;-67
2023/01/29 10:14:43;;;;;;;12.02;9.35;;;;;;;;;;5095391;28;20042;-67
2023/01/29 10:17:10;;;;;;;11.73;8.85;;;;;;;;;;5095150;28;20026;-67
2023/01/29 10:19:39;;;;;;;14.45;10.02;;;;;;;;;;5094586;28;20031;-67
2023/01/29 10:22:24;;;;;;;11.30;9.25;;;;;;;;;;5095504;28;20024;-67
2023/01/29 10:24:57;;;;;;;12.55;9.80;;;;;;;;;;5095075;28;20020;-67
2023/01/29 10:27:27;;;;;;;14.25;9.68;;;;;;;;;;5094894;28;20028;-67
2023/01/29 10:29:53;;;;;;;14.52;10.75;;;;;;;;;;5094962;28;20024;-67
2023/01/29 10:32:22;;;;;;;12.82;9.80;;;;;;;;;;5094432;28;20028;-67
2023/01/29 10:34:53;;;;;;;13.98;10.35;;;;;;;;;;5094643;28;20017;-67
2023/01/29 10:37:24;;;;;;;18.40;11.98;;;;;;;;;;5095007;28;20032;-67
2023/01/29 10:39:50;;;;;;;18.60;11.43;;;;;;;;;;5094549;28;20042;-67
2023/01/29 10:42:20;;;;;;;19.67;12.52;;;;;;;;;;5094751;28;20026;-67
2023/01/29 10:45:00;;;;;;;15.43;12.50;;;;;;;;;;5094558;28;20080;-67
2023/01/29 10:47:45;;;;;;;15.82;11.90;;;;;;;;;;5094716;28;20035;-67
2023/01/29 10:50:11;;;;;;;15.68;11.90;;;;;;;;;;5094434;28;20020;-67
2023/01/29 10:52:40;;;;;;;17.23;12.43;;;;;;;;;;5094459;28;20020;-67
2023/01/29 10:55:21;;;;;;;15.30;10.88;;;;;;;;;;5094216;28;20030;-67
2023/01/29 10:58:00;;;;;;;13.73;10.63;;;;;;;;;;5094119;28;20051;-67
2023/01/29 11:00:30;;;;;;;15.63;11.52;;;;;;;;;;5094025;28;20028;-67
2023/01/29 11:02:56;;;;;;;12.88;10.63;;;;;;;;;;5094112;28;20024;-67
2023/01/29 11:05:29;;;;;;;13.25;9.57;;;;;;;;;;5094274;28;20028;-67
2023/01/29 11:08:15;;;;;;;14.90;10.25;;;;;;;;;;5094071;28;20016;-67
2023/01/29 11:11:01;;;;;;;13.70;10.75;;;;;;;;;;5094136;28;20035;-67
2023/01/29 11:13:30;;;;;;;12.75;10.43;;;;;;;;;;5094274;28;20225;-67
2023/01/29 11:15:57;;;;;;;14.23;10.23;;;;;;;;;;5094100;28;20027;-64
2023/01/29 11:18:23;;;;;;;14.43;10.55;;;;;;;;;;5094249;28;20085;-66
2023/01/29 11:20:59;;;;;;;12.82;9.98;;;;;;;;;;5092840;28;20022;-67
2023/01/29 11:23:26;;;;;;;12.13;10.07;;;;;;;;;;5093858;28;20058;-65
2023/01/29 11:25:53;;;;;;;16.58;11.75;;;;;;;;;;5092496;28;20028;-67
2023/01/29 11:28:55;;;;;;;14.18;10.50;;;;;;;;;;5094087;28;20054;-66
2023/01/29 11:31:22;;;;;;;15.57;10.43;;;;;;;;;;5030739;28;20022;-67
2023/01/29 11:33:50;;;;;;;12.35;10.07;;;;;;;;;;5031419;28;20037;-67
2023/01/29 11:36:37;;;;;;;14.15;10.18;;;;;;;;;;5030977;28;20021;-67
2023/01/29 11:39:15;;;;;;;13.00;9.68;;;;;;;;;;5031936;28;20037;-67
2023/01/29 11:41:47;;;;;;;13.95;10.20;;;;;;;;;;5031045;28;20022;-67
2023/01/29 11:44:20;;;;;;;11.88;8.63;;;;;;;;;;5030577;28;20025;-67
2023/01/29 11:46:47;;;;;;;14.93;9.50;;;;;;;;;;5031067;28;20041;-67
2023/01/29 11:49:32;;;;;;;11.55;8.77;;;;;;;;;;5031047;28;20518;-67
2023/01/29 11:52:00;;;;;;;10.27;9.13;;;;;;;;;;5031103;28;20037;-67
2023/01/29 11:54:29;;;;;;;11.02;8.98;;;;;;;;;;5031564;28;20071;-67
2023/01/29 11:56:55;;;;;;;10.18;8.23;;;;;;;;;;5030683;28;20048;-67
2023/01/29 11:59:30;;;;;;;8.90;7.65;;;;;;;;;;5030675;28;20037;-67
2023/01/29 12:02:03;;;;;;;10.32;8.65;;;;;;;;;;5031082;28;20043;-67
2023/01/29 12:04:29;;;;;;;9.52;7.95;;;;;;;;;;5038028;28;20041;-67
2023/01/29 12:06:56;;;;;;;9.52;8.52;;;;;;;;;;5073098;28;20033;-67
2023/01/29 12:09:26;;;;;;;10.60;8.32;;;;;;;;;;5079450;28;20023;-68
2023/01/29 12:11:52;;;;;;;10.23;8.98;;;;;;;;;;5093327;28;20085;-67
2023/01/29 12:14:22;;;;;;;10.65;8.27;;;;;;;;;;5092490;28;20019;-67
2023/01/29 12:16:51;;;;;;;9.75;7.93;;;;;;;;;;5093497;28;20032;-67
2023/01/29 12:19:20;;;;;;;12.90;8.50;;;;;;;;;;5093353;28;20484;-67
2023/01/29 12:21:49;;;;;;;9.90;8.43;;;;;;;;;;5092966;28;20512;-67
2023/01/29 12:24:23;;;;;;;10.60;8.57;;;;;;;;;;5092796;28;20039;-67
2023/01/29 12:26:52;;;;;;;10.82;9.10;;;;;;;;;;5092612;28;20032;-67
2023/01/29 12:29:31;;;;;;;10.77;8.13;;;;;;;;;;5092825;28;20034;-67
2023/01/29 12:31:57;;;;;;;9.23;8.00;;;;;;;;;;5092661;28;20024;-67
2023/01/29 12:34:43;;;;;;;9.65;8.07;;;;;;;;;;5092395;28;20415;-67
2023/01/29 12:37:16;;;;;;;10.05;8.48;;;;;;;;;;5092700;28;20024;-68
2023/01/29 12:39:43;;;;;;;9.93;8.88;;;;;;;;;;5092884;28;20473;-67
2023/01/29 12:42:19;;;;;;;13.07;9.30;;;;;;;;;;5092244;28;20016;-67
2023/01/29 12:44:48;;;;;;;11.27;8.90;;;;;;;;;;5092468;28;20028;-67
2023/01/29 12:47:20;;;;;;;12.35;10.27;;;;;;;;;;5093587;28;20032;-67
2023/01/29 12:49:50;;;;;;;9.07;8.10;;;;;;;;;;5112960;28;20023;-67
2023/01/29 12:52:35;;;;;;;13.60;12.15;;;;;;;;;;5113046;28;20028;-67
2023/01/29 12:55:06;;;;;;;14.55;11.77;;;;;;;;;;5108861;28;20084;-67
2023/01/29 12:57:32;;;;;;;;;;;;;;;;;;5092112;28;20050;-67
2023/01/29 13:00:02;;;;;;;8.73;7.82;;;;;;;;;;5092691;28;19908;-67
2023/01/29 13:02:28;;;;;;;9.07;8.18;;;;;;;;;;5092547;28;20028;-67
2023/01/29 13:05:02;;;;;;;9.82;8.40;;;;;;;;;;5092419;28;20016;-66
2023/01/29 13:07:35;;;;;;;8.00;7.07;;;;;;;;;;5092450;28;20038;-67
2023/01/29 13:10:05;;;;;;;7.68;6.90;;;;;;;;;;5092246;28;20020;-66
2023/01/29 13:12:32;;;;;;;8.57;7.78;;;;;;;;;;5092286;28;20073;-67
2023/01/29 13:15:19;;;;;;;12.88;11.50;;;;;;;;;;5092373;28;20050;-67
2023/01/29 13:17:51;;;;;;;22.45;18.80;;;;;;;;;;5081890;28;20117;-67
2023/01/29 13:20:18;;;;;;;16.45;14.65;;;;;;;;;;5092435;28;20495;-67
2023/01/29 13:22:46;;;;;;;20.13;16.45;;;;;;;;;;5092427;28;20024;-67
2023/01/29 13:25:15;;;;;;;19.83;15.45;;;;;;;;;;5091779;28;20080;-67
2023/01/29 13:27:42;;;;;;;14.38;10.50;;;;;;;;;;5092325;28;20020;-67
2023/01/29 13:30:22;;;;;;;10.63;8.68;;;;;;;;;;5092641;28;20028;-67
2023/01/29 13:32:51;;;;;;;10.18;8.45;;;;;;;;;;5091922;28;20030;-67
2023/01/29 13:35:18;;;;;;;8.27;7.13;;;;;;;;;;5092324;28;20035;-67
2023/01/29 13:37:49;;;;;;;8.50;7.60;;;;;;;;;;5091885;28;20028;-67
2023/01/29 13:40:21;;;;;;;9.18;7.57;;;;;;;;;;5091682;28;20027;-67
2023/01/29 13:42:48;;;;;;;8.93;7.93;;;;;;;;;;5092044;28;20469;-67
2023/01/29 13:45:26;;;;;;;9.55;7.47;;;;;;;;;;5091900;28;20042;-67
2023/01/29 13:47:53;;;;;;;8.77;7.57;;;;;;;;;;5091746;28;20024;-67
2023/01/29 13:50:32;;;;;;;7.50;6.70;;;;;;;;;;5091793;28;20065;-67
2023/01/29 13:53:00;;;;;;;11.27;8.52;;;;;;;;;;5091850;28;20031;-67
2023/01/29 13:55:30;;;;;;;7.68;6.88;;;;;;;;;;5093185;28;20402;-67
2023/01/29 13:57:57;;;;;;;8.13;7.32;;;;;;;;;;5095194;28;20040;-67
2023/01/29 14:00:29;;;;;;;7.82;7.03;;;;;;;;;;5095349;28;20133;-67
2023/01/29 14:03:10;;;;;;;9.73;8.73;;;;;;;;;;5095491;28;20020;-67
2023/01/29 14:05:36;;;;;;;8.05;7.25;;;;;;;;;;5095232;28;20490;-67
2023/01/29 14:08:02;;;;;;;9.38;8.10;;;;;;;;;;5094994;28;20020;-66
2023/01/29 14:10:30;;;;;;;13.40;10.52;;;;;;;;;;5095032;28;20032;-66
2023/01/29 14:13:18;;;;;;;22.38;15.38;;;;;;;;;;5095137;28;20366;-67
2023/01/29 14:15:45;;;;;;;16.67;12.85;;;;;;;;;;5095198;28;20485;-66
2023/01/29 14:18:11;;;;;;;9.05;7.93;;;;;;;;;;5095071;28;20030;-67
2023/01/29 14:20:38;;;;;;;15.30;11.90;;;;;;;;;;5094978;28;20435;-67
2023/01/29 14:23:04;;;;;;;12.73;10.73;;;;;;;;;;5094933;28;20028;-67
2023/01/29 14:25:34;;;;;;;12.20;10.23;;;;;;;;;;5094808;28;20040;-67
2023/01/29 14:28:01;;;;;;;17.17;12.48;;;;;;;;;;5115124;28;20484;-67
2023/01/29 14:30:32;;;;;;;14.55;10.75;;;;;;;;;;5114547;28;20030;-67
2023/01/29 14:33:00;;;;;;;14.07;11.20;;;;;;;;;;5115088;28;20132;-67
2023/01/29 14:35:29;;;;;;;18.33;13.35;;;;;;;;;;5115187;28;20408;-67
2023/01/29 14:37:59;;;;;;;17.30;10.60;;;;;;;;;;5114798;28;20019;-67
2023/01/29 14:40:26;;;;;;;14.27;10.90;;;;;;;;;;5115043;28;20032;-67
2023/01/29 14:43:19;;;;;;;11.68;9.55;;;;;;;;;;5115097;28;20030;-66
2023/01/29 14:45:47;;;;;;;13.65;9.38;;;;;;;;;;5112741;27;20031;-67
2023/01/29 14:48:19;;;;;;;9.88;8.27;;;;;;;;;;5114755;28;20422;-66
2023/01/29 14:50:47;;;;;;;12.07;9.65;;;;;;;;;;5114915;28;20022;-67
2023/01/29 14:53:32;;;;;;;14.65;10.30;;;;;;;;;;5114669;28;20038;-67
2023/01/29 14:56:01;;;;;;;13.63;9.98;;;;;;;;;;5102797;28;20016;-66
2023/01/29 14:58:33;;;;;;;10.15;8.52;;;;;;;;;;5094124;28;20035;-67
2023/01/29 15:01:01;;;;;;;11.98;8.80;;;;;;;;;;5094455;28;20020;-67
2023/01/29 15:03:31;;;;;;;13.77;9.75;;;;;;;;;;5094099;28;20031;-67
2023/01/29 15:05:58;;;;;;;14.63;10.50;;;;;;;;;;5094173;28;20031;-67
2023/01/29 15:08:48;;;;;;;12.45;9.05;;;;;;;;;;5093756;28;20028;-67
2023/01/29 15:11:34;;;;;;;10.70;8.75;;;;;;;;;;5012236;28;20048;-67
2023/01/29 15:14:03;;;;;;;10.80;8.18;;;;;;;;;;5011968;28;20409;-67
2023/01/29 15:16:50;;;;;;;12.95;8.77;;;;;;;;;;5011852;28;20571;-67